This is the latest recevied weather packets stored in our database for station/object KC1TLF-15. If no packets are shown the sender has not sent any weather packets the latest 10 day(s).
| Time | Temp. | Humidity | Pressure | Rain* | Wind** | Luminosity | Snow |
|---|---|---|---|---|---|---|---|
| 1776988214 | 13.33° C | 28% | 1018 hPa | 0 mm | 0 m/s | - | - |
| 1776987615 | 13.89° C | 27% | 1017.6 hPa | 0 mm | 0 m/s | - | - |
| 1776987013 | 14.44° C | 26% | 1017.7 hPa | 0 mm | 0.45 m/s, 245° | - | - |
| 1776986413 | 15° C | 25% | 1017.5 hPa | 0 mm | 0.45 m/s, 337° | - | - |
| 1776985815 | 15° C | 26% | 1017.4 hPa | 0 mm | 0 m/s | - | - |
| 1776985215 | 15.56° C | 25% | 1017 hPa | 0 mm | 0.45 m/s, 40° | - | - |
| 1776984615 | 15.56° C | 24% | 1017.2 hPa | 0 mm | 0.89 m/s, 356° | - | - |
| 1776984015 | 16.11° C | 26% | 1016.9 hPa | 0 mm | 1.34 m/s, 349° | - | - |
| 1776983415 | 16.11° C | 24% | 1016.8 hPa | 0 mm | 0.89 m/s, 306° | - | - |
| 1776982813 | 16.67° C | 24% | 1016.9 hPa | 0 mm | 0.45 m/s, 311° | - | - |
| 1776982214 | 16.67° C | 23% | 1017 hPa | 0 mm | 0.45 m/s, 298° | - | - |
| 1776981613 | 17.22° C | 24% | 1016.8 hPa | 0 mm | 0.89 m/s, 165° | - | - |
| 1776981014 | 17.22° C | 24% | 1016.8 hPa | 0 mm | 0.89 m/s, 341° | - | - |
| 1776980414 | 17.22° C | 23% | 1016.9 hPa | 0 mm | 2.68 m/s, 288° | - | - |
| 1776979814 | 17.22° C | 23% | 1016.7 hPa | 0 mm | 1.79 m/s, 274° | - | - |
| 1776979214 | 17.22° C | 26% | 1016.8 hPa | 0 mm | 1.34 m/s, 308° | - | - |
| 1776978614 | 17.78° C | 25% | 1016.8 hPa | 0 mm | 0.89 m/s, 321° | - | - |
| 1776978014 | 17.78° C | 24% | 1016.9 hPa | 0 mm | 1.79 m/s, 327° | - | - |
| 1776977414 | 17.22° C | 24% | 1016.9 hPa | 0 mm | 2.24 m/s, 279° | - | - |
| 1776976814 | 16.67° C | 24% | 1016.7 hPa | 0 mm | 2.68 m/s, 0° | - | - |
| 1776976215 | 17.78° C | 25% | 1016.8 hPa | 0 mm | 1.34 m/s, 44° | - | - |
| 1776975615 | 17.78° C | 23% | 1016.7 hPa | 0 mm | 1.34 m/s, 354° | - | - |
| 1776975015 | 17.78° C | 21% | 1016.6 hPa | 0 mm | 3.13 m/s, 346° | 110 W/m² | - |
| 1776974415 | 17.78° C | 21% | 1017 hPa | 0 mm | 3.13 m/s, 280° | 250 W/m² | - |
| 1776973814 | 17.22° C | 21% | 1017.1 hPa | 0 mm | 1.34 m/s, 94° | 199 W/m² | - |
* Rain latest hour (hover to see other rain measurements)
** Current wind speed in m/s (hover to see current wind gust speed)